sensor_id;sensor_type;location;lat;lon;timestamp;pressure;altitude;pressure_sealevel;temperature;humidity
39699;BME280;25372;50.582;12.250;2023-04-19T00:10:12;100548.66;;;6.95;85.91
39699;BME280;25372;50.582;12.250;2023-04-19T00:32:12;100525.41;;;6.89;84.65
39699;BME280;25372;50.582;12.250;2023-04-19T00:42:34;100572.28;;;7.16;84.05
39699;BME280;25372;50.582;12.250;2023-04-19T00:52:56;100563.53;;;7.17;84.98
39699;BME280;25372;50.582;12.250;2023-04-19T01:03:18;100559.63;;;7.05;83.50
39699;BME280;25372;50.582;12.250;2023-04-19T01:13:42;100551.28;;;6.95;83.34
39699;BME280;25372;50.582;12.250;2023-04-19T01:24:04;100544.69;;;6.84;83.47
39699;BME280;25372;50.582;12.250;2023-04-19T01:34:26;100540.22;;;6.88;83.26
39699;BME280;25372;50.582;12.250;2023-04-19T01:44:48;100543.28;;;6.76;83.43
39699;BME280;25372;50.582;12.250;2023-04-19T01:55:09;100534.78;;;6.70;83.61
39699;BME280;25372;50.582;12.250;2023-04-19T02:05:31;100534.41;;;6.56;83.45
39699;BME280;25372;50.582;12.250;2023-04-19T02:15:53;100531.41;;;6.43;83.64
39699;BME280;25372;50.582;12.250;2023-04-19T02:26:16;100525.91;;;6.25;84.66
39699;BME280;25372;50.582;12.250;2023-04-19T02:36:36;100518.88;;;6.27;84.76
39699;BME280;25372;50.582;12.250;2023-04-19T02:46:58;100512.84;;;6.25;85.62
39699;BME280;25372;50.582;12.250;2023-04-19T02:57:19;100508.47;;;6.00;84.94
39699;BME280;25372;50.582;12.250;2023-04-19T03:07:43;100493.97;;;5.92;85.85
39699;BME280;25372;50.582;12.250;2023-04-19T03:18:03;100491.47;;;5.88;85.72
39699;BME280;25372;50.582;12.250;2023-04-19T03:28:26;100482.84;;;5.86;85.41
39699;BME280;25372;50.582;12.250;2023-04-19T03:39:14;100460.34;;;5.84;85.32
39699;BME280;25372;50.582;12.250;2023-04-19T03:49:39;100462.31;;;5.77;84.69
39699;BME280;25372;50.582;12.250;2023-04-19T04:00:00;100451.25;;;5.70;85.32
39699;BME280;25372;50.582;12.250;2023-04-19T04:10:34;100455.19;;;5.55;85.20
39699;BME280;25372;50.582;12.250;2023-04-19T04:20:56;100456.41;;;5.45;84.58
39699;BME280;25372;50.582;12.250;2023-04-19T04:31:18;100471.59;;;5.32;84.33
39699;BME280;25372;50.582;12.250;2023-04-19T04:41:40;100468.16;;;5.30;82.36
39699;BME280;25372;50.582;12.250;2023-04-19T04:52:02;100464.09;;;5.21;81.88
39699;BME280;25372;50.582;12.250;2023-04-19T05:02:29;100456.81;;;5.04;79.64
39699;BME280;25372;50.582;12.250;2023-04-19T05:12:52;100450.53;;;5.11;76.50
39699;BME280;25372;50.582;12.250;2023-04-19T05:23:13;100446.47;;;5.56;77.56
39699;BME280;25372;50.582;12.250;2023-04-19T05:33:36;100456.31;;;5.20;76.33
39699;BME280;25372;50.582;12.250;2023-04-19T05:43:58;100446.50;;;5.01;75.30
39699;BME280;25372;50.582;12.250;2023-04-19T05:54:21;100458.19;;;4.87;67.56
39699;BME280;25372;50.582;12.250;2023-04-19T06:04:42;100462.16;;;4.99;63.94
39699;BME280;25372;50.582;12.250;2023-04-19T06:15:06;100460.34;;;5.01;63.49
39699;BME280;25372;50.582;12.250;2023-04-19T06:25:28;100454.66;;;5.45;63.70
39699;BME280;25372;50.582;12.250;2023-04-19T06:35:50;100440.06;;;5.92;57.61
39699;BME280;25372;50.582;12.250;2023-04-19T06:46:11;100459.03;;;5.16;58.50
39699;BME280;25372;50.582;12.250;2023-04-19T06:56:41;100449.75;;;4.79;60.00
39699;BME280;25372;50.582;12.250;2023-04-19T07:07:03;100443.44;;;4.86;60.39
39699;BME280;25372;50.582;12.250;2023-04-19T07:17:25;100417.97;;;4.98;57.65
39699;BME280;25372;50.582;12.250;2023-04-19T07:27:46;100401.75;;;5.16;58.68
39699;BME280;25372;50.582;12.250;2023-04-19T07:38:08;100411.16;;;5.48;59.55
39699;BME280;25372;50.582;12.250;2023-04-19T07:48:29;100401.63;;;5.48;57.41
39699;BME280;25372;50.582;12.250;2023-04-19T07:58:51;100400.56;;;5.54;58.64
39699;BME280;25372;50.582;12.250;2023-04-19T08:09:12;100383.94;;;5.82;58.17
39699;BME280;25372;50.582;12.250;2023-04-19T08:19:34;100391.50;;;5.90;59.30
39699;BME280;25372;50.582;12.250;2023-04-19T08:29:55;100382.03;;;6.12;58.44
39699;BME280;25372;50.582;12.250;2023-04-19T08:40:17;100374.19;;;6.12;59.38
39699;BME280;25372;50.582;12.250;2023-04-19T08:50:40;100363.69;;;6.62;58.76
39699;BME280;25372;50.582;12.250;2023-04-19T09:01:05;100359.31;;;7.07;57.07
39699;BME280;25372;50.582;12.250;2023-04-19T09:11:35;100335.56;;;7.54;58.34
39699;BME280;25372;50.582;12.250;2023-04-19T09:22:11;100314.19;;;8.05;56.71
39699;BME280;25372;50.582;12.250;2023-04-19T09:32:45;100314.41;;;8.76;55.68
39699;BME280;25372;50.582;12.250;2023-04-19T09:43:07;100318.56;;;8.43;56.15
39699;BME280;25372;50.582;12.250;2023-04-19T09:53:30;100295.50;;;8.32;55.48
39699;BME280;25372;50.582;12.250;2023-04-19T10:03:54;100296.72;;;8.81;57.40
39699;BME280;25372;50.582;12.250;2023-04-19T10:14:16;100282.06;;;8.77;53.34
39699;BME280;25372;50.582;12.250;2023-04-19T10:24:38;100256.00;;;9.78;52.16
39699;BME280;25372;50.582;12.250;2023-04-19T10:35:06;100244.28;;;9.68;51.78
39699;BME280;25372;50.582;12.250;2023-04-19T10:45:32;100248.41;;;9.56;48.26
39699;BME280;25372;50.582;12.250;2023-04-19T10:55:53;100251.66;;;8.74;52.74
39699;BME280;25372;50.582;12.250;2023-04-19T11:06:16;100240.06;;;9.31;50.06
39699;BME280;25372;50.582;12.250;2023-04-19T11:16:39;100229.66;;;9.12;49.70
39699;BME280;25372;50.582;12.250;2023-04-19T11:27:06;100207.34;;;10.20;48.22
39699;BME280;25372;50.582;12.250;2023-04-19T11:37:31;100199.50;;;9.55;50.04
39699;BME280;25372;50.582;12.250;2023-04-19T11:47:53;100207.91;;;8.76;54.05
39699;BME280;25372;50.582;12.250;2023-04-19T11:58:24;100209.81;;;8.55;54.30
39699;BME280;25372;50.582;12.250;2023-04-19T12:08:49;100202.28;;;8.66;54.19
39699;BME280;25372;50.582;12.250;2023-04-19T12:19:12;100193.88;;;10.11;47.97
39699;BME280;25372;50.582;12.250;2023-04-19T12:29:34;100176.75;;;10.35;48.72
39699;BME280;25372;50.582;12.250;2023-04-19T12:39:55;100166.19;;;9.89;50.74
39699;BME280;25372;50.582;12.250;2023-04-19T12:50:17;100169.38;;;10.87;47.97
39699;BME280;25372;50.582;12.250;2023-04-19T13:00:38;100165.44;;;9.87;50.76
39699;BME280;25372;50.582;12.250;2023-04-19T13:11:00;100146.66;;;10.57;49.63
39699;BME280;25372;50.582;12.250;2023-04-19T13:21:21;100129.47;;;9.25;53.10
39699;BME280;25372;50.582;12.250;2023-04-19T13:31:44;100116.13;;;9.61;53.67
39699;BME280;25372;50.582;12.250;2023-04-19T13:42:06;100099.56;;;11.27;47.37
39699;BME280;25372;50.582;12.250;2023-04-19T13:52:28;100087.09;;;9.97;48.74
39699;BME280;25372;50.582;12.250;2023-04-19T14:02:49;100087.47;;;9.58;51.60
39699;BME280;25372;50.582;12.250;2023-04-19T14:13:11;100138.66;;;5.43;75.36
39699;BME280;25372;50.582;12.250;2023-04-19T14:23:32;100137.16;;;5.60;78.78
39699;BME280;25372;50.582;12.250;2023-04-19T14:33:54;100146.34;;;5.93;78.64
39699;BME280;25372;50.582;12.250;2023-04-19T14:44:15;100147.59;;;5.60;79.71
39699;BME280;25372;50.582;12.250;2023-04-19T14:54:37;100158.44;;;6.18;77.77
39699;BME280;25372;50.582;12.250;2023-04-19T15:04:58;100167.91;;;6.41;76.81
39699;BME280;25372;50.582;12.250;2023-04-19T15:15:20;100168.22;;;5.42;80.35
39699;BME280;25372;50.582;12.250;2023-04-19T15:25:41;100195.00;;;4.71;81.49
39699;BME280;25372;50.582;12.250;2023-04-19T15:36:04;100196.44;;;4.53;83.53
39699;BME280;25372;50.582;12.250;2023-04-19T15:46:25;100188.63;;;4.53;81.19
39699;BME280;25372;50.582;12.250;2023-04-19T15:56:47;100188.94;;;4.71;81.99
39699;BME280;25372;50.582;12.250;2023-04-19T16:07:09;100178.78;;;4.63;81.15
39699;BME280;25372;50.582;12.250;2023-04-19T16:17:31;100177.00;;;4.64;81.10
39699;BME280;25372;50.582;12.250;2023-04-19T16:27:52;100168.97;;;4.71;80.72
39699;BME280;25372;50.582;12.250;2023-04-19T16:38:14;100145.50;;;5.22;79.59
39699;BME280;25372;50.582;12.250;2023-04-19T16:48:34;100143.81;;;4.96;79.72
39699;BME280;25372;50.582;12.250;2023-04-19T16:58:56;100141.59;;;4.59;79.74
39699;BME280;25372;50.582;12.250;2023-04-19T17:09:17;100134.25;;;4.45;84.58
39699;BME280;25372;50.582;12.250;2023-04-19T17:19:39;100126.28;;;4.25;83.93
39699;BME280;25372;50.582;12.250;2023-04-19T17:30:00;100128.59;;;4.07;85.48
39699;BME280;25372;50.582;12.250;2023-04-19T17:40:23;100128.50;;;4.09;85.76
39699;BME280;25372;50.582;12.250;2023-04-19T17:50:44;100125.41;;;3.97;83.90
39699;BME280;25372;50.582;12.250;2023-04-19T18:01:06;100132.34;;;3.98;83.97
39699;BME280;25372;50.582;12.250;2023-04-19T18:11:28;100140.16;;;3.97;85.36
39699;BME280;25372;50.582;12.250;2023-04-19T18:21:51;100149.94;;;3.88;85.20
39699;BME280;25372;50.582;12.250;2023-04-19T18:32:11;100135.16;;;3.62;84.75
39699;BME280;25372;50.582;12.250;2023-04-19T18:42:34;100140.06;;;3.41;86.85
39699;BME280;25372;50.582;12.250;2023-04-19T18:52:55;100134.63;;;3.50;85.45
39699;BME280;25372;50.582;12.250;2023-04-19T19:03:17;100131.25;;;3.47;88.74
39699;BME280;25372;50.582;12.250;2023-04-19T19:13:38;100140.09;;;3.70;89.15
39699;BME280;25372;50.582;12.250;2023-04-19T19:24:00;100138.34;;;3.72;89.93
39699;BME280;25372;50.582;12.250;2023-04-19T19:34:21;100131.22;;;3.48;87.87
39699;BME280;25372;50.582;12.250;2023-04-19T19:44:43;100128.38;;;3.26;89.67
39699;BME280;25372;50.582;12.250;2023-04-19T19:55:06;100127.84;;;3.45;90.29
39699;BME280;25372;50.582;12.250;2023-04-19T20:05:32;100128.78;;;3.72;90.01
39699;BME280;25372;50.582;12.250;2023-04-19T20:15:53;100120.53;;;3.29;90.32
39699;BME280;25372;50.582;12.250;2023-04-19T20:26:15;100122.88;;;3.39;89.68
39699;BME280;25372;50.582;12.250;2023-04-19T20:36:35;100125.16;;;3.48;90.45
39699;BME280;25372;50.582;12.250;2023-04-19T20:46:58;100126.16;;;3.44;89.03
39699;BME280;25372;50.582;12.250;2023-04-19T20:57:19;100128.56;;;3.20;89.76
39699;BME280;25372;50.582;12.250;2023-04-19T21:07:40;100126.63;;;3.28;90.54
39699;BME280;25372;50.582;12.250;2023-04-19T21:18:01;100110.94;;;3.31;90.01
39699;BME280;25372;50.582;12.250;2023-04-19T21:28:23;100122.72;;;3.13;89.48
39699;BME280;25372;50.582;12.250;2023-04-19T21:38:44;100122.66;;;3.15;90.03
39699;BME280;25372;50.582;12.250;2023-04-19T21:49:06;100115.75;;;2.84;89.85
39699;BME280;25372;50.582;12.250;2023-04-19T21:59:27;100125.84;;;2.60;89.52
39699;BME280;25372;50.582;12.250;2023-04-19T22:09:50;100128.22;;;2.69;90.08
39699;BME280;25372;50.582;12.250;2023-04-19T22:20:11;100122.91;;;2.74;89.82
39699;BME280;25372;50.582;12.250;2023-04-19T22:30:34;100115.41;;;2.63;90.35
39699;BME280;25372;50.582;12.250;2023-04-19T22:40:55;100111.19;;;2.59;91.12
39699;BME280;25372;50.582;12.250;2023-04-19T22:51:17;100117.22;;;2.61;91.44
39699;BME280;25372;50.582;12.250;2023-04-19T23:01:38;100112.38;;;2.47;90.75
39699;BME280;25372;50.582;12.250;2023-04-19T23:12:00;100106.75;;;2.64;90.83
39699;BME280;25372;50.582;12.250;2023-04-19T23:22:21;100114.56;;;2.62;90.66
39699;BME280;25372;50.582;12.250;2023-04-19T23:32:43;100116.63;;;2.83;89.77
39699;BME280;25372;50.582;12.250;2023-04-19T23:43:04;100117.50;;;2.82;89.40
39699;BME280;25372;50.582;12.250;2023-04-19T23:53:27;100100.78;;;2.92;90.22
